Time;durP1;ratioP1;P1;durP2;ratioP2;P2;SDS_P1;SDS_P2;PMS_P1;PMS_P2;Temp;Humidity;BMP_temperature;BMP_pressure;BME280_temperature;BME280_humidity;BME280_pressure;Samples;Min_cycle;Max_cycle;Signal;HPM_P1;HPM_P2
2022/12/20 00:01:02;;;;;;;70.22;40.88;;;21.80;38.20;;;;;;6073338;28;83858;-63
2022/12/20 00:04:04;;;;;;;65.38;39.58;;;21.80;38.50;;;;;;6069984;28;83340;-62
2022/12/20 00:07:05;;;;;;;67.32;42.13;;;21.80;38.40;;;;;;6068167;28;84846;-62
2022/12/20 00:10:05;;;;;;;63.47;38.42;;;21.80;38.20;;;;;;6062790;28;85455;-63
2022/12/20 00:13:06;;;;;;;68.15;40.95;;;21.70;38.40;;;;;;6072537;28;83143;-63
2022/12/20 00:16:06;;;;;;;68.65;40.67;;;21.70;38.50;;;;;;6083165;28;83747;-63
2022/12/20 00:19:07;;;;;;;66.90;38.33;;;21.70;38.40;;;;;;6078422;28;83471;-64
2022/12/20 00:22:07;;;;;;;63.97;39.05;;;21.70;38.30;;;;;;6077837;28;83274;-63
2022/12/20 00:25:08;;;;;;;62.97;39.03;;;21.70;38.30;;;;;;6084736;28;83921;-63
2022/12/20 00:28:08;;;;;;;65.65;40.17;;;21.70;38.70;;;;;;6071641;28;83260;-74
2022/12/20 00:31:09;;;;;;;70.60;41.25;;;21.70;38.00;;;;;;6071862;28;83351;-73
2022/12/20 00:34:09;;;;;;;69.03;40.13;;;21.70;37.60;;;;;;6071624;28;85554;-73
2022/12/20 00:37:11;;;;;;;65.30;40.10;;;21.70;37.80;;;;;;6074017;28;83237;-72
2022/12/20 00:40:11;;;;;;;68.13;41.88;;;21.70;37.60;;;;;;6093544;28;86365;-74
2022/12/20 00:43:12;;;;;;;66.90;40.95;;;21.70;37.60;;;;;;6088949;28;90396;-70
2022/12/20 00:46:13;;;;;;;62.85;38.10;;;21.70;37.60;;;;;;6069229;28;83090;-56
2022/12/20 00:49:15;;;;;;;69.25;40.97;;;21.70;37.60;;;;;;6075266;28;83822;-57
2022/12/20 00:52:15;;;;;;;62.78;39.83;;;21.70;37.50;;;;;;6082821;28;84568;-57
2022/12/20 00:55:16;;;;;;;67.47;40.20;;;21.70;37.70;;;;;;6077997;28;83226;-58
2022/12/20 00:58:16;;;;;;;64.65;38.67;;;21.70;37.60;;;;;;6075750;28;83038;-54
2022/12/20 01:01:17;;;;;;;66.22;40.97;;;21.70;37.60;;;;;;6075899;28;88837;-57
2022/12/20 01:04:17;;;;;;;61.10;38.63;;;21.70;38.20;;;;;;6076233;28;83082;-70
2022/12/20 01:07:19;;;;;;;60.83;38.45;;;21.70;37.70;;;;;;6072216;28;83534;-73
2022/12/20 01:10:19;;;;;;;61.25;37.65;;;21.70;38.10;;;;;;6070015;28;85738;-74
2022/12/20 01:13:20;;;;;;;66.70;38.45;;;21.70;37.70;;;;;;6061033;28;85092;-68
2022/12/20 01:16:20;;;;;;;61.05;38.05;;;21.70;38.40;;;;;;6077050;28;83222;-69
2022/12/20 01:19:21;;;;;;;62.33;37.97;;;21.70;38.50;;;;;;6089290;28;84561;-69
2022/12/20 01:22:21;;;;;;;59.65;37.00;;;21.70;38.70;;;;;;6071471;28;83121;-58
2022/12/20 01:25:22;;;;;;;58.80;35.70;;;21.70;38.80;;;;;;6068537;28;83486;-57
2022/12/20 01:28:22;;;;;;;62.45;37.47;;;21.70;38.70;;;;;;6071555;28;84119;-55
2022/12/20 01:31:23;;;;;;;59.30;37.15;;;21.70;38.80;;;;;;6069872;28;83267;-56
2022/12/20 01:34:23;;;;;;;59.97;37.53;;;21.70;38.70;;;;;;6069821;28;83655;-56
2022/12/20 01:37:24;;;;;;;60.33;36.00;;;21.70;38.80;;;;;;6089482;28;84554;-55
2022/12/20 01:40:25;;;;;;;60.55;36.83;;;21.70;38.90;;;;;;6068313;28;84102;-65
2022/12/20 01:43:25;;;;;;;65.97;40.80;;;21.70;38.70;;;;;;6068019;28;83842;-63
2022/12/20 01:46:26;;;;;;;66.53;39.30;;;21.70;38.20;;;;;;6064856;28;82980;-64
2022/12/20 01:49:26;;;;;;;63.15;40.45;;;21.70;38.70;;;;;;6083142;28;83406;-65
2022/12/20 01:52:27;;;;;;;68.28;39.70;;;21.70;39.10;;;;;;6083216;28;90144;-64
2022/12/20 01:55:27;;;;;;;65.97;38.88;;;21.70;39.00;;;;;;6105596;28;84869;-63
2022/12/20 01:58:28;;;;;;;69.90;40.03;;;21.70;39.40;;;;;;6096228;28;86150;-64
2022/12/20 02:01:28;;;;;;;67.65;41.15;;;21.70;39.10;;;;;;6105276;28;85705;-63
2022/12/20 02:04:29;;;;;;;68.70;41.70;;;21.70;39.20;;;;;;6098294;28;85792;-63
2022/12/20 02:07:30;;;;;;;66.38;41.75;;;21.70;39.10;;;;;;6101156;28;84244;-62
2022/12/20 02:10:30;;;;;;;69.63;42.95;;;21.70;39.10;;;;;;6088919;28;85728;-62
2022/12/20 02:13:31;;;;;;;73.20;44.28;;;21.70;38.90;;;;;;6108153;28;86343;-61
2022/12/20 02:16:31;;;;;;;72.63;44.40;;;21.70;39.10;;;;;;6094918;28;85681;-70
2022/12/20 02:19:32;;;;;;;70.05;43.65;;;21.70;39.00;;;;;;6082012;28;84263;-71
2022/12/20 02:22:32;;;;;;;74.95;44.63;;;21.70;38.80;;;;;;6079611;28;82931;-71
2022/12/20 02:25:33;;;;;;;76.75;44.85;;;21.70;38.50;;;;;;6072034;28;83114;-70
2022/12/20 02:28:34;;;;;;;77.85;45.80;;;21.70;38.20;;;;;;6057063;28;83287;-69
2022/12/20 02:31:34;;;;;;;73.78;45.28;;;21.70;38.50;;;;;;6076530;28;85970;-69
2022/12/20 02:34:37;;;;;;;72.82;44.30;;;21.70;38.50;;;;;;6087756;28;86080;-61
2022/12/20 02:37:38;;;;;;;76.82;45.90;;;21.70;38.40;;;;;;6102551;28;87907;-65
2022/12/20 02:40:38;;;;;;;73.63;45.47;;;21.70;38.30;;;;;;6097759;28;85838;-65
2022/12/20 02:46:58;;;;;;;73.75;46.10;;;21.70;38.60;;;;;;6119435;28;86242;-65
2022/12/20 02:49:58;;;;;;;73.03;44.78;;;21.70;38.40;;;;;;6104595;28;82823;-63
2022/12/20 02:52:59;;;;;;;73.88;44.60;;;21.70;38.30;;;;;;6075703;28;84748;-65
2022/12/20 02:56:00;;;;;;;76.90;45.40;;;21.70;38.70;;;;;;6068827;28;83495;-64
2022/12/20 02:59:02;;;;;;;71.28;43.50;;;21.60;38.30;;;;;;6082516;28;85868;-65
2022/12/20 03:02:03;;;;;;;77.00;45.03;;;21.60;38.30;;;;;;6099373;28;84412;-64
2022/12/20 03:05:03;;;;;;;73.05;45.08;;;21.60;38.70;;;;;;6063384;28;83256;-63
2022/12/20 03:08:04;;;;;;;70.68;44.35;;;21.60;38.50;;;;;;6058679;28;82994;-64
2022/12/20 03:11:04;;;;;;;74.60;44.70;;;21.60;38.70;;;;;;6076858;28;85199;-65
2022/12/20 03:14:06;;;;;;;73.50;43.65;;;21.60;38.70;;;;;;6075529;28;86002;-64
2022/12/20 03:17:07;;;;;;;77.22;45.33;;;21.60;38.60;;;;;;6115782;28;85528;-64
2022/12/20 03:20:10;;;;;;;71.90;44.53;;;21.60;38.80;;;;;;6086008;28;83184;-64
2022/12/20 03:23:10;;;;;;;71.55;44.60;;;21.60;38.60;;;;;;6080639;28;86199;-64
2022/12/20 03:26:11;;;;;;;77.28;45.33;;;21.60;38.50;;;;;;6071002;28;85080;-64
2022/12/20 03:29:17;;;;;;;68.88;44.00;;;21.60;38.30;;;;;;6076733;28;86009;-64
2022/12/20 03:32:17;;;;;;;74.47;45.28;;;21.60;38.40;;;;;;6070797;28;86096;-55
2022/12/20 03:35:18;;;;;;;75.10;46.20;;;21.60;38.50;;;;;;6076963;28;84008;-57
2022/12/20 03:38:19;;;;;;;75.55;46.42;;;21.60;38.40;;;;;;6076575;28;86575;-56
2022/12/20 03:41:20;;;;;;;75.45;45.88;;;21.60;38.50;;;;;;6078481;28;84638;-56
2022/12/20 03:44:21;;;;;;;82.82;48.70;;;21.60;38.50;;;;;;6065583;28;85968;-58
2022/12/20 03:47:23;;;;;;;81.75;45.55;;;21.60;37.70;;;;;;6082209;28;85080;-56
2022/12/20 03:50:24;;;;;;;76.78;45.97;;;21.60;37.70;;;;;;6121900;28;85519;-59
2022/12/20 03:53:24;;;;;;;76.28;47.58;;;21.60;38.00;;;;;;6086120;28;83307;-59
2022/12/20 03:56:25;;;;;;;74.63;46.75;;;21.60;38.00;;;;;;6070972;28;84410;-58
2022/12/20 03:59:25;;;;;;;78.53;46.22;;;21.60;37.70;;;;;;6076664;28;86708;-59
2022/12/20 04:02:26;;;;;;;70.97;44.85;;;21.70;37.80;;;;;;6065434;28;83065;-60
2022/12/20 04:05:28;;;;;;;75.72;44.33;;;21.60;38.40;;;;;;6071252;28;85318;-60
2022/12/20 04:08:29;;;;;;;74.95;46.20;;;21.70;38.80;;;;;;6070601;28;83761;-62
2022/12/20 04:11:30;;;;;;;72.15;43.75;;;21.70;39.30;;;;;;6071831;28;83441;-62
2022/12/20 04:14:43;;;;;;;75.20;45.05;;;21.60;39.50;;;;;;6086186;28;84508;-63
2022/12/20 04:17:45;;;;;;;74.35;46.00;;;21.70;38.20;;;;;;6083051;28;86592;-62
2022/12/20 04:20:45;;;;;;;80.03;48.22;;;21.70;38.40;;;;;;6088066;28;86118;-62
2022/12/20 04:23:55;;;;;;;76.25;45.15;;;21.70;37.90;;;;;;6082924;28;85786;-65
2022/12/20 04:26:57;;;;;;;78.40;46.85;;;21.80;37.70;;;;;;6077308;28;84121;-64
2022/12/20 04:29:58;;;;;;;76.72;46.33;;;21.80;37.40;;;;;;6072503;28;85832;-65
2022/12/20 04:32:59;;;;;;;73.18;46.53;;;21.90;37.30;;;;;;6073042;28;85777;-65
2022/12/20 04:36:00;;;;;;;69.18;44.55;;;21.90;37.20;;;;;;6071914;28;85536;-64
2022/12/20 04:39:02;;;;;;;74.68;46.15;;;22.00;37.10;;;;;;6076657;28;85643;-64
2022/12/20 04:42:09;;;;;;;77.72;47.08;;;22.00;37.20;;;;;;6068966;28;85961;-63
2022/12/20 04:45:11;;;;;;;71.53;45.45;;;22.10;37.30;;;;;;6074398;28;83197;-63
2022/12/20 04:48:11;;;;;;;74.47;45.75;;;22.10;37.20;;;;;;6067366;28;83362;-63
2022/12/20 04:51:12;;;;;;;70.85;42.88;;;22.20;37.40;;;;;;6099799;28;86016;-65
2022/12/20 04:54:13;;;;;;;72.35;42.83;;;22.20;37.20;;;;;;6109348;28;85593;-64
2022/12/20 04:57:29;;;;;;;;;;;22.20;37.20;;;;;;6077839;28;85678;-63
2022/12/20 05:00:31;;;;;;;70.40;43.30;;;22.30;37.10;;;;;;6085282;28;85371;-64
2022/12/20 05:03:39;;;;;;;68.60;41.63;;;22.30;36.90;;;;;;6088230;28;83197;-65
2022/12/20 05:06:39;;;;;;;64.95;39.95;;;22.30;36.80;;;;;;6077350;28;82996;-62
2022/12/20 05:09:41;;;;;;;66.05;40.05;;;22.40;36.60;;;;;;6094169;28;85658;-63
2022/12/20 05:12:41;;;;;;;63.83;38.00;;;22.40;36.60;;;;;;6058593;28;86012;-64
2022/12/20 05:15:46;;;;;;;63.65;39.28;;;22.40;36.40;;;;;;6078690;28;85964;-63
2022/12/20 05:18:47;;;;;;;58.30;36.58;;;22.40;36.30;;;;;;6066543;28;86206;-63
2022/12/20 05:28:33;;;;;;;60.08;35.90;;;22.40;36.10;;;;;;6075959;28;86249;-72
2022/12/20 05:31:34;;;;;;;53.00;35.00;;;22.50;35.90;;;;;;6075103;28;86020;-73
2022/12/20 05:34:35;;;;;;;57.58;34.75;;;22.50;36.00;;;;;;6059627;28;84869;-74
2022/12/20 05:37:35;;;;;;;54.85;34.40;;;22.50;35.90;;;;;;6056573;28;83095;-75
2022/12/20 05:40:45;;;;;;;56.40;34.63;;;22.50;35.90;;;;;;6095234;28;89146;-58
2022/12/20 05:43:46;;;;;;;54.45;35.47;;;22.50;35.70;;;;;;6104185;28;86013;-56
2022/12/20 05:46:47;;;;;;;53.40;34.63;;;22.60;35.90;;;;;;6091497;28;82916;-55
2022/12/20 05:49:52;;;;;;;53.00;33.30;;;22.60;35.80;;;;;;6103082;28;85240;-57
2022/12/20 05:52:53;;;;;;;51.17;31.85;;;22.60;36.00;;;;;;6104322;28;87199;-58
2022/12/20 05:55:54;;;;;;;46.80;29.63;;;22.60;36.30;;;;;;6103211;28;86102;-58
2022/12/20 05:58:59;;;;;;;49.10;30.37;;;22.70;36.70;;;;;;6092571;28;86598;-75
2022/12/20 06:02:00;;;;;;;43.67;27.35;;;22.60;36.70;;;;;;6093208;28;86160;-72
2022/12/20 06:05:02;;;;;;;45.15;28.08;;;22.70;36.80;;;;;;6091272;28;86203;-62
2022/12/20 06:08:03;;;;;;;45.83;28.05;;;22.70;36.70;;;;;;6095263;28;85419;-73
2022/12/20 06:11:04;;;;;;;46.72;28.60;;;22.70;36.70;;;;;;6096231;28;87166;-72
2022/12/20 06:14:08;;;;;;;45.10;27.23;;;22.80;36.50;;;;;;6097530;28;86033;-75
2022/12/20 06:17:11;;;;;;;43.28;27.55;;;22.80;36.90;;;;;;6099080;28;86127;-69
2022/12/20 06:20:12;;;;;;;46.85;26.58;;;22.80;37.30;;;;;;6090715;28;83458;-69
2022/12/20 06:23:14;;;;;;;44.05;26.50;;;22.80;37.80;;;;;;6089416;28;85831;-70
2022/12/20 06:26:22;;;;;;;45.75;26.90;;;22.80;38.50;;;;;;6093653;28;88376;-68
2022/12/20 06:29:23;;;;;;;40.33;25.55;;;22.90;39.10;;;;;;6085195;28;84478;-68
2022/12/20 06:32:28;;;;;;;40.90;25.25;;;22.90;39.60;;;;;;6095324;28;85464;-68
2022/12/20 06:35:29;;;;;;;45.08;27.13;;;22.90;40.10;;;;;;6108214;28;86244;-56
2022/12/20 06:38:30;;;;;;;43.25;23.80;;;22.90;40.20;;;;;;6099355;28;86202;-56
2022/12/20 06:41:31;;;;;;;38.15;20.88;;;22.80;41.40;;;;;;6101402;28;83787;-58
2022/12/20 06:44:31;;;;;;;29.98;19.73;;;22.70;42.30;;;;;;6093975;28;86215;-54
2022/12/20 06:47:32;;;;;;;33.33;17.35;;;22.70;42.60;;;;;;6110864;28;86161;-55
2022/12/20 06:50:35;;;;;;;23.17;15.18;;;22.60;42.90;;;;;;6103036;28;85730;-56
2022/12/20 06:53:35;;;;;;;27.77;13.82;;;22.60;43.10;;;;;;6077820;28;86033;-63
2022/12/20 06:56:37;;;;;;;23.40;12.45;;;22.60;43.70;;;;;;5901039;28;89546;-63
2022/12/20 06:59:42;;;;;;;15.50;10.60;;;22.50;44.00;;;;;;5962105;28;85489;-68
2022/12/20 07:02:44;;;;;;;16.73;10.40;;;22.50;44.40;;;;;;6072292;28;84523;-60
2022/12/20 07:05:44;;;;;;;15.00;9.25;;;22.50;44.70;;;;;;6058967;28;84150;-60
2022/12/20 07:08:45;;;;;;;13.65;8.90;;;22.50;45.10;;;;;;6070804;28;83478;-61
2022/12/20 07:11:45;;;;;;;12.95;8.38;;;22.40;45.40;;;;;;6066484;28;80879;-68
2022/12/20 07:14:46;;;;;;;13.90;8.45;;;22.30;45.50;;;;;;6066920;28;81223;-67
2022/12/20 07:17:46;;;;;;;15.50;8.02;;;22.30;46.00;;;;;;6078290;28;80955;-59
2022/12/20 07:20:47;;;;;;;12.48;7.85;;;22.30;46.10;;;;;;6070750;28;82864;-63
2022/12/20 07:23:47;;;;;;;13.20;7.90;;;22.30;46.50;;;;;;6077899;28;80563;-63
2022/12/20 07:26:48;;;;;;;13.82;7.72;;;22.30;46.90;;;;;;6071484;28;80772;-63
2022/12/20 07:29:48;;;;;;;15.32;7.82;;;22.20;47.00;;;;;;6066811;28;80202;-62
2022/12/20 07:32:49;;;;;;;14.15;9.18;;;22.10;47.20;;;;;;6063099;28;80564;-65
2022/12/20 07:35:49;;;;;;;12.70;8.75;;;22.10;47.20;;;;;;6070838;28;82364;-64
2022/12/20 07:38:50;;;;;;;13.35;8.55;;;22.00;47.70;;;;;;6054028;28;82483;-64
2022/12/20 07:41:50;;;;;;;15.27;9.23;;;22.10;47.60;;;;;;6052545;28;80684;-62
2022/12/20 07:44:51;;;;;;;16.23;9.68;;;22.10;47.30;;;;;;6057412;28;86880;-63
2022/12/20 07:47:51;;;;;;;13.93;8.85;;;22.20;47.50;;;;;;6056622;28;81626;-64
2022/12/20 07:50:52;;;;;;;11.82;8.40;;;22.20;47.80;;;;;;6028316;28;85191;-67
2022/12/20 07:53:52;;;;;;;14.15;8.40;;;22.20;47.70;;;;;;6062910;28;83448;-67
2022/12/20 07:56:53;;;;;;;14.38;8.52;;;22.20;47.80;;;;;;6101562;28;82300;-64
2022/12/20 07:59:53;;;;;;;13.98;9.15;;;22.20;48.50;;;;;;6066085;28;83903;-65
2022/12/20 08:02:54;;;;;;;12.40;8.60;;;22.20;47.90;;;;;;6073987;28;83309;-67
2022/12/20 08:05:55;;;;;;;13.25;9.10;;;22.20;47.90;;;;;;6086071;28;85663;-79
2022/12/20 08:08:55;;;;;;;16.05;10.07;;;22.30;48.00;;;;;;6092892;28;81288;-74
2022/12/20 08:11:56;;;;;;;15.25;9.70;;;22.20;48.10;;;;;;6097894;28;83132;-67
2022/12/20 08:14:56;;;;;;;14.02;9.43;;;22.20;48.00;;;;;;6091622;28;83249;-68
2022/12/20 08:17:57;;;;;;;20.42;11.85;;;22.20;48.10;;;;;;6091489;28;81941;-69
2022/12/20 08:20:57;;;;;;;22.25;12.30;;;22.20;48.20;;;;;;6090626;28;85714;-69
2022/12/20 08:23:58;;;;;;;23.65;12.43;;;22.30;48.10;;;;;;6082134;28;84042;-61
2022/12/20 08:26:58;;;;;;;25.98;13.05;;;22.30;48.80;;;;;;6082171;28;83343;-64
2022/12/20 08:29:59;;;;;;;23.17;11.77;;;22.20;48.70;;;;;;6085915;28;84508;-61
2022/12/20 08:32:59;;;;;;;20.75;11.65;;;22.30;49.00;;;;;;6090250;28;84522;-62
2022/12/20 08:36:01;;;;;;;21.35;11.43;;;22.40;48.60;;;;;;6085973;28;85112;-60
2022/12/20 08:39:01;;;;;;;17.48;10.70;;;22.40;48.80;;;;;;6091766;28;83814;-60
2022/12/20 08:42:02;;;;;;;20.40;10.80;;;22.50;49.00;;;;;;6088001;28;83186;-61
2022/12/20 08:45:02;;;;;;;20.33;11.23;;;22.50;48.80;;;;;;6086692;28;87834;-60
2022/12/20 08:48:03;;;;;;;15.95;9.80;;;22.60;48.50;;;;;;6081706;28;83728;-60
2022/12/20 08:51:03;;;;;;;17.23;9.02;;;22.60;48.80;;;;;;6066979;28;82354;-60
2022/12/20 08:54:04;;;;;;;13.88;9.23;;;22.60;48.50;;;;;;6080064;28;81304;-59
2022/12/20 08:57:05;;;;;;;16.38;10.70;;;22.70;48.60;;;;;;6088780;28;80927;-60
2022/12/20 09:00:06;;;;;;;18.38;11.13;;;22.80;48.20;;;;;;6076625;28;83749;-62
2022/12/20 09:03:08;;;;;;;18.17;10.27;;;22.80;48.30;;;;;;6075128;28;83741;-59
2022/12/20 09:06:09;;;;;;;16.85;10.50;;;22.80;48.50;;;;;;6078492;28;83453;-58
2022/12/20 09:09:09;;;;;;;17.27;10.50;;;22.90;48.70;;;;;;6081207;28;83442;-59
2022/12/20 09:12:10;;;;;;;17.73;10.98;;;22.90;48.40;;;;;;6078818;28;83477;-59
2022/12/20 09:15:10;;;;;;;15.57;9.93;;;22.90;48.50;;;;;;6089261;28;85320;-61
2022/12/20 09:18:11;;;;;;;17.15;10.80;;;23.00;48.80;;;;;;6088245;28;83029;-64
2022/12/20 09:21:11;;;;;;;17.33;10.68;;;23.00;48.30;;;;;;6088923;28;85717;-56
2022/12/20 09:24:12;;;;;;;18.45;11.18;;;23.00;48.20;;;;;;6073218;28;84075;-59
2022/12/20 09:27:12;;;;;;;18.10;10.30;;;23.10;48.00;;;;;;6067502;28;83481;-59
2022/12/20 09:30:13;;;;;;;15.40;9.75;;;23.10;48.40;;;;;;6082500;28;83432;-56
2022/12/20 09:33:14;;;;;;;16.02;10.13;;;23.10;48.30;;;;;;6084267;28;82878;-60
2022/12/20 09:36:14;;;;;;;16.23;10.15;;;23.10;48.10;;;;;;6081524;28;86960;-57
2022/12/20 09:39:15;;;;;;;19.05;9.55;;;23.10;48.20;;;;;;6083577;28;83193;-61
2022/12/20 09:42:15;;;;;;;18.75;10.63;;;23.20;48.50;;;;;;6097130;28;84858;-61
2022/12/20 09:45:15;;;;;;;17.48;10.18;;;23.20;48.40;;;;;;6089008;28;83316;-60
2022/12/20 09:48:16;;;;;;;34.42;11.10;;;23.20;48.70;;;;;;6092072;28;83048;-63
2022/12/20 09:51:17;;;;;;;16.80;10.25;;;23.20;49.00;;;;;;6087928;28;89117;-60
2022/12/20 09:54:18;;;;;;;16.73;9.93;;;23.10;48.80;;;;;;6081382;28;86000;-59
2022/12/20 09:57:18;;;;;;;19.38;12.43;;;23.10;48.60;;;;;;6089008;28;85935;-59
2022/12/20 10:00:19;;;;;;;16.08;9.82;;;23.00;48.40;;;;;;6094388;28;85880;-60
2022/12/20 10:03:19;;;;;;;15.82;10.25;;;23.00;49.00;;;;;;6066462;28;83517;-60
2022/12/20 10:06:20;;;;;;;18.17;10.90;;;23.10;48.80;;;;;;6075640;28;84300;-62
2022/12/20 10:09:20;;;;;;;16.38;10.48;;;23.00;48.60;;;;;;6078321;28;86032;-63
2022/12/20 10:12:21;;;;;;;18.25;9.93;;;23.00;48.60;;;;;;6074627;28;83939;-60
2022/12/20 10:15:22;;;;;;;13.98;9.60;;;22.90;49.30;;;;;;6083895;28;83400;-62
2022/12/20 10:18:22;;;;;;;15.00;10.73;;;22.90;49.30;;;;;;6081389;28;86737;-63
2022/12/20 10:21:23;;;;;;;20.08;10.55;;;22.80;49.20;;;;;;6071983;28;84735;-69
2022/12/20 10:24:23;;;;;;;17.50;10.23;;;22.70;49.40;;;;;;6081434;28;89214;-65
2022/12/20 10:27:24;;;;;;;14.90;9.02;;;22.80;49.80;;;;;;6077909;28;84271;-63
2022/12/20 10:30:24;;;;;;;16.75;9.95;;;22.90;49.60;;;;;;6101221;28;83427;-72
2022/12/20 10:33:25;;;;;;;15.43;8.85;;;23.00;49.50;;;;;;6087254;28;80904;-58
2022/12/20 10:36:25;;;;;;;12.45;8.32;;;23.10;49.40;;;;;;6091993;28;80511;-59
2022/12/20 10:39:26;;;;;;;15.55;9.57;;;23.10;49.70;;;;;;6085240;28;84262;-63
2022/12/20 10:42:26;;;;;;;16.52;10.38;;;23.10;49.20;;;;;;6097915;28;83634;-64
2022/12/20 10:45:27;;;;;;;21.08;10.05;;;22.90;48.80;;;;;;6090606;28;83262;-58
2022/12/20 10:48:27;;;;;;;15.80;9.18;;;22.80;49.50;;;;;;6092963;28;84124;-67
2022/12/20 10:51:28;;;;;;;16.42;8.73;;;22.90;49.70;;;;;;6097651;28;83600;-64
2022/12/20 10:54:28;;;;;;;14.00;9.43;;;22.90;49.20;;;;;;6099441;28;81315;-63
2022/12/20 10:57:30;;;;;;;17.17;9.57;;;22.90;48.70;;;;;;6092046;28;83218;-63
2022/12/20 11:00:31;;;;;;;17.60;8.90;;;22.90;49.50;;;;;;6096500;28;81414;-62
2022/12/20 11:03:31;;;;;;;14.57;9.43;;;22.80;49.60;;;;;;6097687;28;81316;-61
2022/12/20 11:06:32;;;;;;;19.73;9.27;;;22.80;50.30;;;;;;6082123;28;82370;-62
2022/12/20 11:09:32;;;;;;;16.45;9.13;;;22.80;50.60;;;;;;6092689;28;81493;-64
2022/12/20 11:12:33;;;;;;;17.13;8.90;;;22.80;51.10;;;;;;6087669;28;80635;-64
2022/12/20 11:15:33;;;;;;;19.05;8.20;;;22.70;51.60;;;;;;6086808;28;81669;-67
2022/12/20 11:18:34;;;;;;;18.20;8.70;;;22.70;51.60;;;;;;6093256;28;80779;-68
2022/12/20 11:21:34;;;;;;;20.92;8.65;;;22.70;51.80;;;;;;6082152;28;80944;-64
2022/12/20 11:24:35;;;;;;;14.57;8.18;;;22.70;51.80;;;;;;6091715;28;84564;-68
2022/12/20 11:27:35;;;;;;;17.33;8.25;;;22.70;51.90;;;;;;6102366;28;82083;-61
2022/12/20 11:30:36;;;;;;;28.60;9.40;;;22.70;52.20;;;;;;6092407;28;86411;-65
2022/12/20 11:33:36;;;;;;;17.08;8.35;;;22.70;52.30;;;;;;6088824;28;80515;-62
2022/12/20 11:36:37;;;;;;;16.80;7.95;;;22.70;52.70;;;;;;6094733;28;84166;-64
2022/12/20 11:39:37;;;;;;;15.02;8.65;;;22.60;52.60;;;;;;6061500;28;80855;-64
2022/12/20 11:42:38;;;;;;;28.95;8.70;;;22.60;52.90;;;;;;6063515;28;82290;-61
2022/12/20 11:45:38;;;;;;;17.02;9.25;;;22.60;52.80;;;;;;6064070;28;81111;-63
2022/12/20 11:48:39;;;;;;;19.38;10.30;;;22.70;53.00;;;;;;6056446;28;86494;-60
2022/12/20 11:51:40;;;;;;;18.35;10.00;;;22.70;52.70;;;;;;6063980;28;83407;-68
2022/12/20 11:54:40;;;;;;;18.95;9.95;;;22.70;52.60;;;;;;6058305;28;83161;-65
2022/12/20 11:57:41;;;;;;;17.13;9.13;;;22.60;52.70;;;;;;6060441;28;83513;-68
2022/12/20 12:00:41;;;;;;;20.08;8.30;;;22.60;52.90;;;;;;6055328;28;80635;-67
2022/12/20 12:03:42;;;;;;;18.00;8.02;;;22.60;52.90;;;;;;6062305;28;82577;-69
2022/12/20 12:06:42;;;;;;;14.80;7.97;;;22.60;53.20;;;;;;6073493;28;80719;-64
2022/12/20 12:09:43;;;;;;;14.00;8.32;;;22.60;53.00;;;;;;6065286;28;81645;-69
2022/12/20 12:12:43;;;;;;;13.27;8.57;;;22.60;52.90;;;;;;6074323;28;80584;-69
2022/12/20 12:15:44;;;;;;;15.07;8.35;;;22.60;52.80;;;;;;6076844;28;80745;-69
2022/12/20 12:18:44;;;;;;;13.07;7.38;;;22.60;52.70;;;;;;6079722;28;80487;-68
2022/12/20 12:21:45;;;;;;;14.02;7.97;;;22.60;52.60;;;;;;6083109;28;80143;-69
2022/12/20 12:24:45;;;;;;;16.15;8.02;;;22.70;52.70;;;;;;6063433;28;81485;-70
2022/12/20 12:27:46;;;;;;;20.45;7.90;;;22.70;52.30;;;;;;6088219;28;81722;-68
2022/12/20 12:30:47;;;;;;;17.08;8.57;;;22.60;52.30;;;;;;6099288;28;81124;-65
2022/12/20 12:33:47;;;;;;;12.90;7.57;;;22.60;52.30;;;;;;6094320;28;81229;-68
2022/12/20 12:36:48;;;;;;;16.65;8.20;;;22.60;52.60;;;;;;6080509;28;81759;-66
2022/12/20 12:39:48;;;;;;;11.80;7.55;;;22.60;52.50;;;;;;6086887;28;80902;-66
2022/12/20 12:42:49;;;;;;;12.98;7.50;;;22.70;52.70;;;;;;6086050;28;81277;-66
2022/12/20 12:45:49;;;;;;;14.27;8.00;;;22.60;52.30;;;;;;6087466;28;83656;-69
2022/12/20 12:48:50;;;;;;;14.60;7.75;;;22.70;52.00;;;;;;6085226;28;80786;-66
2022/12/20 12:51:51;;;;;;;14.35;8.40;;;22.70;51.50;;;;;;6093164;28;83959;-67
2022/12/20 12:54:51;;;;;;;12.35;8.43;;;22.70;51.40;;;;;;6082888;28;80843;-66
2022/12/20 12:57:52;;;;;;;13.85;8.18;;;22.70;51.30;;;;;;6085893;28;81125;-66
2022/12/20 13:00:52;;;;;;;11.63;7.85;;;22.80;51.40;;;;;;6078078;28;80924;-67
2022/12/20 13:03:53;;;;;;;13.80;8.45;;;22.80;51.10;;;;;;6080510;28;80642;-69
2022/12/20 13:06:53;;;;;;;16.00;8.05;;;22.80;50.80;;;;;;6096354;28;80719;-68
2022/12/20 13:09:54;;;;;;;13.75;8.15;;;22.80;51.50;;;;;;6088962;28;80904;-69
2022/12/20 13:12:54;;;;;;;15.52;8.20;;;22.90;50.60;;;;;;6091025;28;82165;-68
2022/12/20 13:15:55;;;;;;;15.07;8.63;;;23.00;50.60;;;;;;6090946;28;85145;-68
2022/12/20 13:18:56;;;;;;;15.90;8.75;;;23.10;50.20;;;;;;6078618;28;80953;-61
2022/12/20 13:21:56;;;;;;;12.73;8.02;;;23.20;49.50;;;;;;6083627;28;83853;-60
2022/12/20 13:24:57;;;;;;;12.43;8.25;;;23.20;49.80;;;;;;6075167;28;83969;-60
2022/12/20 13:27:57;;;;;;;12.00;7.85;;;23.20;49.70;;;;;;6073634;28;80844;-59
2022/12/20 13:30:58;;;;;;;14.50;9.10;;;23.20;49.60;;;;;;6089524;28;83117;-60
2022/12/20 13:33:58;;;;;;;19.33;8.85;;;23.20;49.40;;;;;;6101784;28;83585;-60
2022/12/20 13:36:59;;;;;;;13.00;8.30;;;23.20;50.10;;;;;;6090390;28;80577;-61
2022/12/20 13:39:59;;;;;;;17.85;10.50;;;23.10;50.20;;;;;;6087643;28;83297;-61
2022/12/20 13:43:00;;;;;;;22.77;12.20;;;23.10;50.20;;;;;;6079269;28;83753;-59
2022/12/20 13:46:00;;;;;;;24.38;13.15;;;23.10;50.60;;;;;;6093829;28;83699;-62
2022/12/20 13:49:02;;;;;;;25.50;13.95;;;23.10;50.90;;;;;;6089689;28;85794;-59
2022/12/20 13:52:02;;;;;;;26.80;12.52;;;23.10;50.70;;;;;;6078006;28;88698;-58
2022/12/20 13:55:03;;;;;;;23.20;13.90;;;23.10;51.00;;;;;;6109155;28;86325;-63
2022/12/20 13:58:03;;;;;;;25.38;14.07;;;23.00;50.30;;;;;;6087678;28;88973;-62
2022/12/20 14:01:04;;;;;;;29.30;14.52;;;23.00;50.60;;;;;;6079967;28;84850;-60
2022/12/20 14:04:05;;;;;;;28.30;15.25;;;23.00;50.70;;;;;;6073310;28;87312;-60
2022/12/20 14:07:06;;;;;;;30.08;16.33;;;23.00;51.30;;;;;;6071002;28;85596;-59
2022/12/20 14:10:07;;;;;;;30.35;15.57;;;23.00;50.80;;;;;;6087861;28;83043;-61
2022/12/20 14:13:07;;;;;;;27.00;14.60;;;23.00;50.70;;;;;;6069412;28;84671;-59
2022/12/20 14:16:08;;;;;;;28.50;15.15;;;23.00;50.80;;;;;;6083928;28;83531;-58
2022/12/20 14:19:08;;;;;;;34.53;15.75;;;23.00;50.80;;;;;;6090993;28;83984;-59
2022/12/20 14:22:09;;;;;;;35.47;16.10;;;23.00;50.60;;;;;;6085610;28;83742;-59
2022/12/20 14:25:09;;;;;;;31.40;16.23;;;23.00;51.40;;;;;;6089727;28;84119;-58
2022/12/20 14:28:10;;;;;;;29.02;15.25;;;23.00;51.10;;;;;;6087138;28;86720;-58
2022/12/20 14:31:11;;;;;;;29.88;14.93;;;23.00;49.50;;;;;;6094475;28;83964;-59
2022/12/20 14:34:15;;;;;;;31.35;16.10;;;22.90;50.80;;;;;;6085159;28;83546;-58
2022/12/20 14:37:15;;;;;;;29.45;16.65;;;22.90;50.30;;;;;;6088740;28;83705;-58
2022/12/20 14:40:16;;;;;;;34.65;16.10;;;22.90;51.50;;;;;;6088540;28;89578;-59
2022/12/20 14:43:17;;;;;;;29.52;16.30;;;23.00;51.70;;;;;;6094219;28;83406;-60
2022/12/20 14:46:17;;;;;;;43.65;15.77;;;23.00;51.70;;;;;;6091271;28;85481;-59
2022/12/20 14:49:18;;;;;;;25.70;15.10;;;23.00;52.10;;;;;;6081914;28;84964;-59
2022/12/20 14:52:19;;;;;;;32.25;15.93;;;23.00;52.00;;;;;;6084735;28;84577;-60
2022/12/20 14:55:19;;;;;;;30.25;14.68;;;23.00;52.70;;;;;;6100297;28;83720;-59
2022/12/20 14:58:20;;;;;;;24.80;13.52;;;23.00;54.10;;;;;;6077188;28;84192;-59
2022/12/20 15:01:21;;;;;;;29.13;14.68;;;22.90;54.00;;;;;;6056801;28;84801;-60
2022/12/20 15:04:21;;;;;;;28.88;15.00;;;23.00;54.20;;;;;;6055195;28;85969;-60
2022/12/20 15:07:22;;;;;;;31.48;17.48;;;23.00;54.60;;;;;;6060329;28;84132;-61
2022/12/20 15:10:22;;;;;;;25.27;15.77;;;22.90;54.90;;;;;;6065207;28;83098;-68
2022/12/20 15:13:23;;;;;;;32.47;17.30;;;22.90;55.10;;;;;;6053630;28;83451;-69
2022/12/20 15:16:23;;;;;;;28.83;15.13;;;22.90;55.30;;;;;;6066071;28;84662;-67
2022/12/20 15:19:24;;;;;;;25.17;15.13;;;22.90;55.40;;;;;;6080630;28;83256;-65
2022/12/20 15:22:24;;;;;;;30.60;15.20;;;22.90;55.10;;;;;;6059299;28;83392;-66
2022/12/20 15:25:25;;;;;;;29.17;14.50;;;22.90;54.40;;;;;;6051972;28;87994;-67
2022/12/20 15:28:26;;;;;;;25.10;14.30;;;22.80;54.40;;;;;;6053564;28;83656;-66
2022/12/20 15:31:27;;;;;;;23.17;12.40;;;22.80;54.40;;;;;;6062757;28;84482;-62